Time;durP1;ratioP1;P1;durP2;ratioP2;P2;SDS_P1;SDS_P2;PMS_P1;PMS_P2;Temp;Humidity;BMP_temperature;BMP_pressure;BME280_temperature;BME280_humidity;BME280_pressure;Samples;Min_cycle;Max_cycle;Signal;HPM_P1;HPM_P2
2022/01/25 00:24:17;;;;;;;9.85;8.85;;;16.90;48.00;;;;;;5012736;28;92665;-69
2022/01/25 00:24:25;;;;;;;10.65;9.55;;;16.90;47.80;;;;;;5012755;28;92782;-69
2022/01/25 00:29:35;;;;;;;9.35;8.50;;;16.90;48.00;;;;;;5010216;28;92941;-68
2022/01/25 00:32:00;;;;;;;10.32;9.32;;;16.90;47.90;;;;;;5011283;28;93287;-69
2022/01/25 00:34:26;;;;;;;9.48;8.57;;;16.90;47.90;;;;;;4991995;28;95639;-69
2022/01/25 00:36:53;;;;;;;9.95;9.00;;;16.90;47.70;;;;;;5011335;28;93425;-69
2022/01/25 00:39:18;;;;;;;9.50;8.60;;;16.90;47.60;;;;;;5011526;28;93084;-69
2022/01/25 00:41:44;;;;;;;9.77;8.88;;;16.90;47.50;;;;;;5010830;28;92749;-67
2022/01/25 00:44:12;;;;;;;10.52;9.25;;;17.00;47.50;;;;;;5011062;28;92521;-68
2022/01/25 00:46:37;;;;;;;10.07;9.10;;;17.00;47.50;;;;;;5011579;28;92656;-68
2022/01/25 00:49:04;;;;;;;10.05;9.05;;;17.00;47.40;;;;;;5010951;28;95570;-69
2022/01/25 00:56:37;;;;;;;10.43;9.35;;;17.00;47.20;;;;;;5010321;28;92553;-69
2022/01/25 00:59:06;;;;;;;9.48;8.57;;;17.00;47.20;;;;;;5009687;28;95395;-69
2022/01/25 01:01:32;;;;;;;9.55;8.65;;;17.00;47.10;;;;;;5011401;28;95140;-69
2022/01/25 01:03:59;;;;;;;9.50;8.60;;;17.00;47.10;;;;;;5011323;28;92985;-69
2022/01/25 01:06:26;;;;;;;9.90;8.90;;;17.00;47.10;;;;;;5012558;28;93006;-69
2022/01/25 01:08:52;;;;;;;10.18;9.15;;;17.00;47.10;;;;;;5011186;28;92751;-70
2022/01/25 01:11:25;;;;;;;9.68;8.77;;;17.00;47.10;;;;;;5011628;28;92464;-70
2022/01/25 01:30:23;;;;;;;10.48;9.48;;;16.90;47.20;;;;;;5011835;28;92669;-70
2022/01/25 01:43:35;;;;;;;10.70;9.52;;;16.90;47.10;;;;;;5009343;28;92847;-69
2022/01/25 01:48:50;;;;;;;10.52;9.43;;;16.90;47.10;;;;;;5012087;28;92486;-70
2022/01/25 01:51:25;;;;;;;11.38;10.27;;;16.90;47.20;;;;;;5013373;28;96401;-69
2022/01/25 01:53:52;;;;;;;11.13;10.02;;;16.90;47.30;;;;;;5011333;28;96923;-68
2022/01/25 01:56:17;;;;;;;11.18;10.10;;;16.90;47.30;;;;;;5011780;28;92996;-69
2022/01/25 01:58:43;;;;;;;11.18;10.07;;;16.90;47.20;;;;;;5010969;28;92602;-70
2022/01/25 02:01:14;;;;;;;10.93;9.93;;;16.90;47.10;;;;;;5010512;28;93119;-69
2022/01/25 02:03:40;;;;;;;11.52;10.43;;;16.90;47.10;;;;;;5010871;28;93300;-69
2022/01/25 02:06:06;;;;;;;11.68;10.50;;;16.90;47.20;;;;;;5010830;28;92618;-69
2022/01/25 02:08:34;;;;;;;13.23;11.07;;;16.90;47.10;;;;;;5010612;28;92247;-69
2022/01/25 02:11:00;;;;;;;12.73;11.43;;;16.90;47.10;;;;;;5008968;28;93586;-70
2022/01/25 02:13:27;;;;;;;12.07;10.45;;;16.80;47.20;;;;;;5010613;28;93028;-69
2022/01/25 02:15:55;;;;;;;11.13;10.05;;;16.80;47.10;;;;;;5009109;28;95346;-69
2022/01/25 02:23:49;;;;;;;12.45;11.25;;;16.80;47.20;;;;;;5009990;28;92747;-70
2022/01/25 02:26:15;;;;;;;13.13;11.75;;;16.80;47.10;;;;;;5009675;28;92678;-69
2022/01/25 02:28:44;;;;;;;12.52;11.23;;;16.80;47.10;;;;;;5009995;28;92924;-69
2022/01/25 02:31:12;;;;;;;12.70;11.50;;;16.80;47.10;;;;;;5009404;28;93106;-69
2022/01/25 02:33:39;;;;;;;11.95;10.75;;;16.80;47.20;;;;;;5010314;28;92834;-69
2022/01/25 02:36:11;;;;;;;12.90;11.57;;;16.80;47.10;;;;;;5009917;28;92581;-69
2022/01/25 02:38:37;;;;;;;13.52;12.15;;;16.80;47.10;;;;;;5010528;28;93012;-69
2022/01/25 02:41:03;;;;;;;13.45;12.05;;;16.70;47.20;;;;;;5007916;28;95675;-69
2022/01/25 02:43:30;;;;;;;12.93;11.63;;;16.70;47.20;;;;;;5008090;28;94928;-69
2022/01/25 02:46:19;;;;;;;13.18;11.88;;;16.70;47.10;;;;;;5008700;28;92871;-69
2022/01/25 02:48:54;;;;;;;13.90;12.50;;;16.70;47.20;;;;;;5009510;28;93087;-71
2022/01/25 02:51:23;;;;;;;13.82;12.43;;;16.70;47.10;;;;;;5009284;28;93322;-69
2022/01/25 02:53:48;;;;;;;13.13;11.82;;;16.70;47.20;;;;;;5008724;28;92631;-70
2022/01/25 02:56:15;;;;;;;13.52;12.23;;;16.70;47.10;;;;;;5009658;28;92545;-69
2022/01/25 02:58:41;;;;;;;14.07;12.57;;;16.70;47.10;;;;;;5009385;28;91836;-70
2022/01/25 03:01:07;;;;;;;13.68;12.27;;;16.70;47.10;;;;;;5010054;28;93040;-69
2022/01/25 03:03:33;;;;;;;13.32;12.02;;;16.70;47.10;;;;;;5009325;28;93027;-69
2022/01/25 03:05:59;;;;;;;14.38;12.43;;;16.70;47.10;;;;;;5008471;28;95338;-69
2022/01/25 03:08:24;;;;;;;12.95;11.43;;;16.70;48.10;;;;;;5009522;28;93940;-70
2022/01/25 03:10:50;;;;;;;13.88;12.48;;;16.70;47.10;;;;;;5009619;28;93055;-69
2022/01/25 03:13:20;;;;;;;13.05;11.73;;;16.70;47.10;;;;;;5010232;28;93010;-70
2022/01/25 03:21:04;;;;;;;13.20;11.88;;;16.70;46.90;;;;;;5011566;28;94004;-70
2022/01/25 03:23:32;;;;;;;13.18;11.88;;;16.70;46.90;;;;;;5013566;28;93195;-69
2022/01/25 03:25:58;;;;;;;13.90;12.40;;;16.70;47.00;;;;;;5012593;28;92971;-70
2022/01/25 03:28:24;;;;;;;14.00;12.50;;;16.70;46.80;;;;;;5013626;28;92906;-70
2022/01/25 03:30:50;;;;;;;13.77;12.38;;;16.70;46.80;;;;;;5010821;28;95737;-70
2022/01/25 03:33:17;;;;;;;14.57;13.13;;;16.70;46.90;;;;;;5012557;28;95060;-70
2022/01/25 03:35:45;;;;;;;14.15;12.20;;;16.70;47.00;;;;;;5014867;28;92895;-70
2022/01/25 03:38:11;;;;;;;15.13;13.10;;;16.70;46.90;;;;;;5015602;28;92778;-70
2022/01/25 03:40:37;;;;;;;15.40;13.80;;;16.70;46.80;;;;;;5012229;28;93672;-70
2022/01/25 03:43:05;;;;;;;13.90;12.40;;;16.70;46.80;;;;;;5012092;28;92687;-70
2022/01/25 03:45:33;;;;;;;14.23;12.73;;;16.70;46.70;;;;;;5013382;28;92838;-69
2022/01/25 03:50:45;;;;;;;14.90;13.02;;;16.70;46.60;;;;;;5011722;28;92916;-70
2022/01/25 03:53:12;;;;;;;14.07;12.50;;;16.70;46.60;;;;;;5010487;28;94871;-70
2022/01/25 03:55:39;;;;;;;14.68;12.45;;;16.70;46.50;;;;;;5011875;28;95227;-70
2022/01/25 03:58:05;;;;;;;15.10;13.50;;;16.70;46.40;;;;;;5013516;28;92551;-70
2022/01/25 05:45:57;;;;;;;9.05;8.13;;;18.70;43.30;;;;;;4970215;28;95099;-69
2022/01/25 05:48:27;;;;;;;10.98;8.27;;;18.60;43.40;;;;;;4972006;28;92666;-69
2022/01/25 05:50:54;;;;;;;9.32;8.18;;;18.50;43.40;;;;;;4971874;28;95030;-69
2022/01/25 05:53:21;;;;;;;9.40;8.50;;;18.50;43.60;;;;;;4971589;28;93416;-68
2022/01/25 05:55:46;;;;;;;10.18;8.95;;;18.40;43.70;;;;;;4971370;28;93043;-69
2022/01/25 05:58:12;;;;;;;10.32;9.13;;;18.30;43.80;;;;;;4972540;28;92532;-69
2022/01/25 06:00:38;;;;;;;10.02;8.85;;;18.30;43.90;;;;;;4970926;28;92856;-69
2022/01/25 06:03:05;;;;;;;10.07;9.07;;;18.20;43.80;;;;;;4971088;28;92952;-68
2022/01/25 06:05:32;;;;;;;10.98;9.75;;;18.10;43.90;;;;;;4970899;28;92645;-70
2022/01/25 06:07:58;;;;;;;13.93;11.02;;;18.10;44.20;;;;;;4970785;28;92529;-72
2022/01/25 06:10:23;;;;;;;19.55;11.60;;;18.00;44.20;;;;;;4968601;28;96267;-69
2022/01/25 06:12:49;;;;;;;14.95;10.70;;;18.00;44.20;;;;;;4969325;28;95270;-69
2022/01/25 06:15:15;;;;;;;13.63;11.13;;;17.90;44.30;;;;;;4970026;28;92779;-69
2022/01/25 06:17:41;;;;;;;19.27;11.75;;;17.90;44.50;;;;;;4970911;28;92614;-69
2022/01/25 06:20:07;;;;;;;13.52;10.82;;;17.80;44.60;;;;;;4970424;28;92663;-69
2022/01/25 06:22:33;;;;;;;12.90;10.45;;;17.80;44.70;;;;;;4970402;28;93068;-70
2022/01/25 06:24:59;;;;;;;12.98;10.93;;;17.70;44.90;;;;;;4969669;28;92408;-69
2022/01/25 06:27:24;;;;;;;14.52;11.05;;;17.70;45.10;;;;;;4970017;28;92031;-69
2022/01/25 06:29:50;;;;;;;12.50;10.90;;;17.60;45.20;;;;;;4969688;28;92894;-70
2022/01/25 06:32:17;;;;;;;13.85;10.63;;;17.60;45.40;;;;;;4969852;28;94162;-70
2022/01/25 06:34:44;;;;;;;15.38;11.80;;;17.60;45.60;;;;;;4968421;28;95441;-72
2022/01/25 06:37:12;;;;;;;16.10;12.15;;;17.60;45.70;;;;;;4970816;28;92968;-71
2022/01/25 06:39:38;;;;;;;15.02;11.93;;;17.50;45.80;;;;;;4969772;28;94643;-72
2022/01/25 06:42:04;;;;;;;58.60;14.43;;;17.50;45.90;;;;;;4969211;28;93413;-72
2022/01/25 06:44:29;;;;;;;28.35;13.13;;;17.50;46.30;;;;;;4969517;28;92574;-71
2022/01/25 06:46:55;;;;;;;26.65;13.73;;;17.40;46.30;;;;;;4970305;28;92893;-66
2022/01/25 06:49:20;;;;;;;29.02;13.38;;;17.40;46.40;;;;;;4951022;28;102304;-67
2022/01/25 06:51:46;;;;;;;29.45;13.02;;;17.30;46.50;;;;;;4970206;28;99883;-66
2022/01/25 06:54:12;;;;;;;25.95;14.10;;;17.30;46.70;;;;;;4973893;28;92709;-67
2022/01/25 06:56:37;;;;;;;21.00;12.85;;;17.20;46.80;;;;;;4973822;28;92786;-67
2022/01/25 06:59:03;;;;;;;22.48;14.00;;;17.20;47.00;;;;;;4971682;28;96086;-67
2022/01/25 07:01:30;;;;;;;24.90;13.60;;;17.20;47.30;;;;;;4972908;28;95676;-68
2022/01/25 07:03:56;;;;;;;24.58;14.25;;;17.20;47.30;;;;;;4973177;28;92894;-68
2022/01/25 07:06:21;;;;;;;24.70;14.52;;;17.10;47.40;;;;;;4974438;28;93145;-67
2022/01/25 07:08:47;;;;;;;39.35;14.45;;;17.10;47.40;;;;;;4972969;28;93087;-69
2022/01/25 07:11:14;;;;;;;28.35;14.10;;;17.10;47.70;;;;;;4972857;28;93966;-69
2022/01/25 07:13:39;;;;;;;27.20;13.77;;;17.20;47.70;;;;;;4972211;28;93788;-69
2022/01/25 07:16:05;;;;;;;28.90;14.30;;;17.30;47.60;;;;;;4973413;28;91804;-68
2022/01/25 07:18:31;;;;;;;30.13;13.50;;;17.40;47.40;;;;;;4972068;28;94007;-68
2022/01/25 07:20:57;;;;;;;31.08;14.73;;;17.40;47.40;;;;;;4972164;28;94045;-70
2022/01/25 07:23:23;;;;;;;27.42;15.27;;;17.40;47.30;;;;;;4971068;28;95387;-71
2022/01/25 07:25:49;;;;;;;27.65;14.13;;;17.30;47.40;;;;;;4972225;28;92594;-70
2022/01/25 07:28:16;;;;;;;26.73;14.45;;;17.30;47.50;;;;;;4954765;28;93253;-69
2022/01/25 07:30:41;;;;;;;24.45;14.80;;;17.20;47.60;;;;;;4976003;28;93362;-70
2022/01/25 07:33:07;;;;;;;24.35;14.68;;;17.20;47.90;;;;;;4977774;28;92507;-69
2022/01/25 07:35:36;;;;;;;28.85;17.58;;;17.10;48.60;;;;;;4975799;28;92888;-68
2022/01/25 07:38:03;;;;;;;25.98;18.02;;;17.10;52.50;;;;;;4973043;28;93082;-69
2022/01/25 07:40:29;;;;;;;24.08;17.15;;;17.10;52.80;;;;;;4972548;28;92829;-69
2022/01/25 07:42:55;;;;;;;30.75;18.42;;;17.00;53.60;;;;;;4971752;28;92854;-69
2022/01/25 07:45:21;;;;;;;29.67;18.95;;;17.00;54.10;;;;;;4969633;28;93060;-68
2022/01/25 07:47:47;;;;;;;32.72;19.30;;;17.00;54.60;;;;;;4970613;28;96096;-69
2022/01/25 07:50:14;;;;;;;25.40;18.33;;;17.00;54.90;;;;;;4970987;28;95507;-67
2022/01/25 07:52:40;;;;;;;30.15;18.33;;;17.00;54.90;;;;;;4971298;28;92481;-67
2022/01/25 07:55:06;;;;;;;27.98;17.38;;;16.90;55.40;;;;;;4962597;28;92560;-67
2022/01/25 07:57:32;;;;;;;32.97;17.98;;;16.90;55.40;;;;;;4970807;28;94977;-68
2022/01/25 07:59:58;;;;;;;27.45;18.40;;;16.90;55.40;;;;;;4971359;28;93450;-68
2022/01/25 08:02:25;;;;;;;26.35;18.52;;;16.90;55.40;;;;;;4971201;28;92887;-68
2022/01/25 08:04:50;;;;;;;26.55;19.15;;;16.90;55.40;;;;;;4973386;28;91753;-68
2022/01/25 08:07:17;;;;;;;28.38;19.10;;;16.90;55.40;;;;;;4971739;28;94141;-68
2022/01/25 08:09:43;;;;;;;26.58;18.95;;;16.90;55.10;;;;;;4970901;28;93229;-67
2022/01/25 08:12:11;;;;;;;26.83;20.85;;;16.90;54.80;;;;;;4970300;28;95409;-67
2022/01/25 08:14:38;;;;;;;31.48;20.95;;;16.90;54.40;;;;;;4970893;28;92999;-68
2022/01/25 08:17:04;;;;;;;28.98;20.15;;;16.90;54.20;;;;;;4971175;28;94102;-67
2022/01/25 08:19:29;;;;;;;31.05;20.00;;;16.90;54.30;;;;;;4969992;28;94782;-67
2022/01/25 08:21:55;;;;;;;29.00;20.20;;;16.90;54.50;;;;;;4971430;28;93370;-68
2022/01/25 08:24:21;;;;;;;26.40;19.85;;;16.90;54.20;;;;;;4972196;28;93050;-68
2022/01/25 08:26:47;;;;;;;26.35;19.58;;;16.90;54.10;;;;;;4970820;28;94150;-72
2022/01/25 08:29:13;;;;;;;27.38;20.40;;;16.90;53.90;;;;;;4972530;28;92834;-68
2022/01/25 08:31:39;;;;;;;26.90;21.05;;;16.90;53.80;;;;;;4969332;28;92842;-68
2022/01/25 08:34:11;;;;;;;25.70;19.27;;;16.90;53.50;;;;;;4972766;28;92517;-68
2022/01/25 08:36:38;;;;;;;29.80;20.65;;;16.90;53.40;;;;;;4970238;28;96563;-69
2022/01/25 08:39:05;;;;;;;23.88;18.85;;;16.90;53.20;;;;;;4971248;28;95222;-68
2022/01/25 08:41:31;;;;;;;27.92;20.45;;;16.90;53.00;;;;;;4971176;28;93069;-68
2022/01/25 08:43:57;;;;;;;25.75;18.90;;;16.90;52.80;;;;;;4964659;28;92962;-67
2022/01/25 08:46:22;;;;;;;26.73;20.00;;;17.00;52.60;;;;;;4951219;28;93130;-68
2022/01/25 08:48:48;;;;;;;25.42;18.98;;;17.00;52.60;;;;;;4950829;28;93269;-68
2022/01/25 08:51:15;;;;;;;25.60;19.15;;;17.00;52.40;;;;;;4952218;28;93022;-71
2022/01/25 08:53:41;;;;;;;28.02;19.17;;;17.00;52.30;;;;;;4952469;28;91935;-69
2022/01/25 08:56:08;;;;;;;27.05;18.15;;;17.00;52.10;;;;;;4950552;28;92941;-70
2022/01/25 08:58:34;;;;;;;23.45;18.60;;;17.00;52.10;;;;;;4951148;28;92866;-69
2022/01/25 09:01:00;;;;;;;23.33;18.13;;;17.00;52.20;;;;;;4950548;28;94968;-69
2022/01/25 09:03:26;;;;;;;26.52;19.80;;;17.00;52.20;;;;;;4952317;28;93162;-71
2022/01/25 09:05:52;;;;;;;26.30;19.10;;;17.00;52.10;;;;;;4951600;28;93172;-70
2022/01/25 09:08:27;;;;;;;26.67;19.95;;;17.00;52.10;;;;;;4952499;28;93031;-69
2022/01/25 09:10:57;;;;;;;25.73;19.90;;;17.00;52.00;;;;;;4950997;28;92494;-70
2022/01/25 09:13:24;;;;;;;26.10;19.30;;;17.00;51.80;;;;;;4952125;28;92753;-71
2022/01/25 09:15:55;;;;;;;25.45;19.35;;;17.00;51.80;;;;;;4952388;28;93168;-71
2022/01/25 09:18:22;;;;;;;24.88;19.05;;;17.00;51.80;;;;;;4956747;28;93385;-69
2022/01/25 09:20:47;;;;;;;33.47;20.15;;;17.00;51.70;;;;;;4953682;28;92595;-70
2022/01/25 09:23:17;;;;;;;33.83;21.15;;;17.00;51.60;;;;;;4954311;28;92805;-70
2022/01/25 09:25:42;;;;;;;38.83;20.63;;;17.00;51.40;;;;;;4950244;28;96500;-71
2022/01/25 09:28:08;;;;;;;31.33;20.55;;;17.00;51.20;;;;;;4933531;28;97605;-70
2022/01/25 09:30:33;;;;;;;31.60;20.20;;;17.00;51.10;;;;;;4950995;28;92625;-70
2022/01/25 09:32:59;;;;;;;31.25;20.35;;;17.00;51.00;;;;;;4951144;28;92552;-70
2022/01/25 09:35:25;;;;;;;30.83;20.35;;;17.00;50.90;;;;;;4950989;28;94129;-69
2022/01/25 09:37:51;;;;;;;32.13;20.50;;;17.00;50.80;;;;;;4951123;28;93005;-70
2022/01/25 09:40:20;;;;;;;28.77;19.60;;;17.00;50.70;;;;;;4951200;28;93308;-69
2022/01/25 09:42:51;;;;;;;27.42;19.77;;;17.00;50.60;;;;;;4951695;28;91765;-70
2022/01/25 09:45:17;;;;;;;27.85;19.73;;;17.00;50.70;;;;;;4950298;28;94124;-69
2022/01/25 09:47:43;;;;;;;28.20;20.10;;;17.00;50.50;;;;;;4951850;28;93932;-70
2022/01/25 09:50:09;;;;;;;28.23;19.50;;;17.00;50.40;;;;;;4949439;28;95062;-69
2022/01/25 09:52:35;;;;;;;27.60;20.58;;;17.00;50.40;;;;;;4950774;28;92616;-69
2022/01/25 09:55:01;;;;;;;25.23;19.55;;;17.00;50.30;;;;;;4950538;28;99939;-69
2022/01/25 09:57:27;;;;;;;25.33;18.58;;;17.00;50.30;;;;;;4951177;28;93401;-69
2022/01/25 09:59:54;;;;;;;29.58;19.33;;;17.00;50.10;;;;;;4951167;28;92789;-70
2022/01/25 10:03:15;;;;;;;26.45;19.63;;;17.00;50.10;;;;;;4950785;28;92807;-69
2022/01/25 10:05:44;;;;;;;27.38;20.30;;;17.00;50.00;;;;;;4871524;28;93578;-70
2022/01/25 10:08:20;;;;;;;26.75;18.92;;;17.00;50.00;;;;;;4948181;28;94442;-70
2022/01/25 10:10:57;;;;;;;28.17;19.00;;;17.00;49.90;;;;;;4951451;28;92542;-70
2022/01/25 10:13:27;;;;;;;28.88;20.63;;;17.00;49.80;;;;;;4952246;28;92476;-70
2022/01/25 10:16:08;;;;;;;27.40;19.48;;;17.00;49.80;;;;;;4950018;28;95980;-70
2022/01/25 10:18:44;;;;;;;26.10;19.40;;;16.90;49.70;;;;;;4951336;28;95188;-70
2022/01/25 10:21:15;;;;;;;28.10;20.10;;;17.00;49.70;;;;;;4950920;28;92996;-70
2022/01/25 10:24:11;;;;;;;27.63;19.52;;;16.90;49.70;;;;;;4951534;28;92561;-71
2022/01/25 10:26:41;;;;;;;27.45;19.33;;;16.90;49.60;;;;;;4952972;28;93168;-70
2022/01/25 10:29:12;;;;;;;26.02;18.80;;;16.90;49.60;;;;;;4954409;28;93528;-70
2022/01/25 10:31:44;;;;;;;28.15;19.80;;;16.90;49.60;;;;;;4954913;28;93058;-70
2022/01/25 10:34:13;;;;;;;27.33;19.67;;;16.90;49.50;;;;;;4954624;28;91830;-70
2022/01/25 10:36:46;;;;;;;26.90;18.88;;;16.90;49.50;;;;;;4953783;28;93014;-71
2022/01/25 10:39:18;;;;;;;28.05;19.10;;;16.90;49.50;;;;;;4953931;28;92937;-70
2022/01/25 10:41:44;;;;;;;24.52;18.45;;;16.80;49.40;;;;;;4953016;28;95208;-70
2022/01/25 10:44:09;;;;;;;24.77;19.02;;;16.80;49.40;;;;;;4952585;28;92607;-71
2022/01/25 10:46:35;;;;;;;25.55;18.85;;;16.80;49.30;;;;;;4953929;28;93478;-70
2022/01/25 10:49:08;;;;;;;26.02;19.83;;;16.80;49.30;;;;;;4953293;28;94069;-72
2022/01/25 10:51:40;;;;;;;24.42;17.95;;;16.80;49.30;;;;;;4954380;28;92825;-69
2022/01/25 10:54:17;;;;;;;27.60;18.77;;;16.80;49.30;;;;;;4953545;28;92740;-70
2022/01/25 10:56:49;;;;;;;26.77;19.42;;;16.80;49.30;;;;;;4953756;28;94245;-71
2022/01/25 10:59:23;;;;;;;26.83;19.35;;;16.80;49.20;;;;;;4953647;28;92940;-70
2022/01/25 11:01:56;;;;;;;26.00;18.90;;;16.80;49.10;;;;;;4953870;28;92743;-70
2022/01/25 11:04:29;;;;;;;26.13;18.43;;;16.80;49.10;;;;;;4957269;28;92482;-70
2022/01/25 11:07:05;;;;;;;25.52;19.48;;;16.80;49.00;;;;;;4956164;28;96588;-69
2022/01/25 11:09:37;;;;;;;23.48;18.10;;;16.80;49.00;;;;;;4940481;28;97805;-70
2022/01/25 11:12:06;;;;;;;24.52;19.42;;;16.80;48.90;;;;;;4955379;28;93165;-70
2022/01/25 11:14:53;;;;;;;25.25;19.00;;;16.80;48.90;;;;;;4954566;28;92913;-70
2022/01/25 11:17:24;;;;;;;24.67;18.15;;;16.80;48.80;;;;;;4952806;28;93566;-70
2022/01/25 11:19:50;;;;;;;24.60;19.08;;;16.80;48.70;;;;;;4953356;28;93377;-70
2022/01/25 11:22:19;;;;;;;25.27;18.73;;;16.80;48.70;;;;;;4954534;28;92520;-69
2022/01/25 11:24:50;;;;;;;27.38;19.13;;;16.80;48.70;;;;;;4954265;28;92092;-71
2022/01/25 11:27:17;;;;;;;25.58;18.17;;;16.80;48.60;;;;;;4936643;28;94160;-70
2022/01/25 11:29:45;;;;;;;27.10;18.15;;;16.80;48.60;;;;;;4953611;28;93473;-70
2022/01/25 11:32:15;;;;;;;25.58;18.38;;;16.80;48.50;;;;;;4951615;28;95190;-70
2022/01/25 11:34:43;;;;;;;25.15;18.45;;;16.80;48.50;;;;;;4935858;28;92550;-69
2022/01/25 11:37:09;;;;;;;23.02;18.33;;;16.80;48.50;;;;;;4952420;28;93013;-69
2022/01/25 11:39:39;;;;;;;24.60;18.70;;;16.80;48.40;;;;;;4952989;28;93736;-70
2022/01/25 11:42:05;;;;;;;24.48;18.15;;;16.80;48.40;;;;;;4953073;28;92712;-70
2022/01/25 11:44:31;;;;;;;26.80;17.95;;;16.80;48.40;;;;;;4953209;28;92585;-69
2022/01/25 11:47:06;;;;;;;23.48;17.95;;;16.80;48.30;;;;;;4951942;28;92980;-70
2022/01/25 11:49:32;;;;;;;24.58;17.90;;;16.80;48.40;;;;;;4945181;28;92681;-70
2022/01/25 11:52:13;;;;;;;22.83;17.60;;;16.80;48.30;;;;;;4953316;28;92619;-70
2022/01/25 11:54:40;;;;;;;23.45;18.55;;;16.80;48.20;;;;;;4953500;28;92575;-70
2022/01/25 11:57:14;;;;;;;24.33;18.15;;;16.80;48.20;;;;;;4952748;28;95403;-70
2022/01/25 11:59:41;;;;;;;23.58;18.13;;;16.80;48.20;;;;;;4951253;28;98037;-71
2022/01/25 12:02:07;;;;;;;24.35;18.60;;;16.80;48.20;;;;;;4953621;28;92888;-70
2022/01/25 12:04:34;;;;;;;24.92;17.95;;;16.80;48.10;;;;;;4953060;28;92654;-70
2022/01/25 12:07:13;;;;;;;23.85;17.70;;;16.80;48.10;;;;;;4951643;28;93089;-71
2022/01/25 12:09:44;;;;;;;21.15;16.95;;;16.80;48.20;;;;;;4952725;28;94498;-69
2022/01/25 12:12:11;;;;;;;23.17;17.60;;;16.80;48.10;;;;;;4952257;28;92530;-69
2022/01/25 12:14:40;;;;;;;22.13;16.73;;;16.80;48.00;;;;;;4953112;28;93042;-69
2022/01/25 12:17:06;;;;;;;21.83;17.42;;;16.80;48.00;;;;;;4952259;28;94633;-73
2022/01/25 12:19:44;;;;;;;23.63;17.75;;;16.80;48.00;;;;;;4953382;28;92835;-69
2022/01/25 12:22:35;;;;;;;22.73;17.73;;;16.80;47.90;;;;;;4951774;28;95332;-70
2022/01/25 12:25:27;;;;;;;22.75;17.52;;;16.80;47.90;;;;;;4934881;28;93142;-68
2022/01/25 12:28:00;;;;;;;23.05;17.33;;;16.80;47.90;;;;;;4953208;28;94153;-69
2022/01/25 12:30:26;;;;;;;23.42;17.75;;;16.80;48.00;;;;;;4953021;28;93341;-69
2022/01/25 12:33:04;;;;;;;22.77;16.98;;;16.80;47.90;;;;;;4952700;28;92565;-69
2022/01/25 12:35:44;;;;;;;21.80;16.48;;;16.80;47.80;;;;;;4952903;28;92891;-68
2022/01/25 12:38:21;;;;;;;23.55;17.05;;;16.80;47.80;;;;;;4951822;28;93122;-69
2022/01/25 12:41:07;;;;;;;21.10;16.25;;;16.80;47.80;;;;;;4952941;28;92156;-70
2022/01/25 12:43:42;;;;;;;24.13;17.20;;;16.80;47.70;;;;;;4954868;28;92743;-70
2022/01/25 12:46:18;;;;;;;24.42;16.88;;;16.90;47.80;;;;;;4971434;28;92998;-70
2022/01/25 12:48:50;;;;;;;21.33;16.38;;;16.90;47.90;;;;;;4970943;28;96511;-70
2022/01/25 12:51:20;;;;;;;22.25;17.85;;;16.90;47.70;;;;;;4975108;28;95366;-70
2022/01/25 12:53:48;;;;;;;22.27;16.80;;;16.90;47.80;;;;;;4974326;28;92608;-70
2022/01/25 12:56:16;;;;;;;22.13;16.73;;;16.90;47.70;;;;;;4972986;28;92483;-69
2022/01/25 12:58:44;;;;;;;23.70;16.45;;;16.90;47.70;;;;;;4971525;28;95629;-70
2022/01/25 13:01:14;;;;;;;22.13;16.55;;;16.90;47.70;;;;;;4972103;28;94145;-71
2022/01/25 13:03:52;;;;;;;22.10;16.83;;;16.80;47.60;;;;;;4971775;28;92909;-70
2022/01/25 13:06:24;;;;;;;21.50;16.50;;;16.90;47.50;;;;;;4972693;28;92350;-70
2022/01/25 13:08:56;;;;;;;21.20;16.00;;;16.90;47.50;;;;;;4971893;28;92819;-70
2022/01/25 13:11:27;;;;;;;21.63;16.02;;;16.90;47.50;;;;;;4972091;28;92745;-70
2022/01/25 13:14:15;;;;;;;21.58;15.88;;;16.90;47.50;;;;;;4970598;28;94825;-70
2022/01/25 13:17:17;;;;;;;20.00;15.98;;;16.90;47.40;;;;;;4971774;28;92956;-71
2022/01/25 13:20:04;;;;;;;20.60;15.75;;;16.90;47.40;;;;;;4952898;28;94115;-69
2022/01/25 13:22:39;;;;;;;19.75;15.70;;;16.90;47.30;;;;;;4970823;28;94464;-69
2022/01/25 13:25:26;;;;;;;22.15;15.27;;;17.00;47.30;;;;;;4971530;28;93190;-69
2022/01/25 13:27:56;;;;;;;22.85;15.02;;;17.00;47.30;;;;;;4970649;28;92804;-69
2022/01/25 13:30:46;;;;;;;20.67;14.85;;;16.90;47.30;;;;;;4971119;28;94761;-69
2022/01/25 13:33:17;;;;;;;22.88;16.02;;;17.00;47.30;;;;;;4971616;28;92820;-69
2022/01/25 13:35:48;;;;;;;20.42;15.88;;;17.00;47.20;;;;;;4971135;28;92961;-68
2022/01/25 13:38:24;;;;;;;20.92;15.07;;;17.00;47.20;;;;;;4971236;28;93047;-69
2022/01/25 13:46:33;;;;;;;20.30;15.00;;;17.00;47.10;;;;;;4970054;28;92717;-69
2022/01/25 13:49:14;;;;;;;20.85;14.70;;;17.00;47.10;;;;;;4970729;28;92658;-70
2022/01/25 13:51:59;;;;;;;19.60;14.20;;;17.00;47.00;;;;;;4970238;28;94055;-70
2022/01/25 13:54:27;;;;;;;19.70;14.80;;;17.00;47.00;;;;;;4970050;28;93112;-70
2022/01/25 13:56:55;;;;;;;17.95;13.98;;;17.00;47.00;;;;;;4971136;28;92725;-70
2022/01/25 13:59:25;;;;;;;19.63;15.05;;;17.00;46.90;;;;;;4954761;28;92313;-69
2022/01/25 14:01:51;;;;;;;18.27;14.15;;;17.00;47.00;;;;;;4970799;28;94147;-69
2022/01/25 14:04:21;;;;;;;19.85;14.23;;;17.00;46.90;;;;;;4970441;28;93730;-69
2022/01/25 14:06:52;;;;;;;19.15;14.40;;;17.00;46.90;;;;;;4969735;28;95311;-70
2022/01/25 14:09:25;;;;;;;20.45;15.25;;;17.10;46.90;;;;;;4971839;28;92965;-70
2022/01/25 14:25:31;;;;;;;18.33;13.68;;;17.00;46.80;;;;;;4969744;28;92762;-69
2022/01/25 14:27:59;;;;;;;18.98;13.88;;;17.00;46.80;;;;;;4969026;28;92618;-69
2022/01/25 14:30:29;;;;;;;18.08;14.30;;;17.00;46.80;;;;;;4969773;28;92788;-69
2022/01/25 14:33:11;;;;;;;18.10;13.40;;;17.10;46.80;;;;;;4968371;28;95918;-69
2022/01/25 14:36:15;;;;;;;18.30;13.43;;;17.10;46.80;;;;;;4971907;28;95753;-69
2022/01/25 14:38:43;;;;;;;18.00;13.80;;;17.10;46.70;;;;;;4973997;28;92556;-69
2022/01/25 14:41:13;;;;;;;18.23;13.30;;;17.00;46.70;;;;;;4970952;28;93091;-69
2022/01/25 14:43:47;;;;;;;19.77;14.48;;;17.10;46.70;;;;;;4969629;28;92980;-69
2022/01/25 14:46:36;;;;;;;18.50;13.55;;;17.00;46.60;;;;;;4969855;28;93253;-70
2022/01/25 14:49:24;;;;;;;16.23;13.30;;;17.10;46.70;;;;;;4970300;28;92906;-69
2022/01/25 14:51:52;;;;;;;18.80;13.40;;;17.10;46.70;;;;;;4968449;28;92343;-69
2022/01/25 14:54:34;;;;;;;18.98;13.43;;;17.00;46.60;;;;;;4968875;28;93310;-69
2022/01/25 14:57:05;;;;;;;17.98;13.40;;;17.10;46.50;;;;;;4968706;28;93103;-69
2022/01/25 14:59:48;;;;;;;18.80;12.93;;;17.10;46.60;;;;;;4968253;28;95167;-69
2022/01/25 15:02:16;;;;;;;18.00;13.35;;;17.10;46.60;;;;;;4968982;28;92811;-69
2022/01/25 15:04:54;;;;;;;18.75;13.50;;;17.10;46.60;;;;;;4969147;28;93215;-69
2022/01/25 15:07:24;;;;;;;19.92;13.95;;;17.10;46.50;;;;;;4969572;28;94631;-69
2022/01/25 15:09:55;;;;;;;19.35;13.45;;;17.10;46.50;;;;;;4968537;28;92773;-68
2022/01/25 15:12:25;;;;;;;18.30;13.20;;;17.10;46.50;;;;;;4969967;28;92956;-69
2022/01/25 15:15:05;;;;;;;16.67;12.60;;;17.10;46.50;;;;;;4972939;28;93523;-69
2022/01/25 15:17:31;;;;;;;18.38;13.10;;;17.10;46.50;;;;;;4973670;28;93414;-69
2022/01/25 15:19:56;;;;;;;17.13;13.25;;;17.10;46.50;;;;;;4973302;28;92916;-69
2022/01/25 15:22:24;;;;;;;19.58;12.98;;;17.10;46.40;;;;;;4973486;28;92615;-69
2022/01/25 15:24:50;;;;;;;20.00;12.75;;;17.10;46.40;;;;;;4971223;28;96037;-69
2022/01/25 15:27:16;;;;;;;19.30;12.82;;;17.10;46.30;;;;;;4973064;28;96501;-69
2022/01/25 15:29:43;;;;;;;17.00;12.55;;;17.10;46.30;;;;;;4973329;28;92583;-69
2022/01/25 15:32:09;;;;;;;15.57;11.93;;;17.10;46.40;;;;;;4973583;28;92903;-70
2022/01/25 15:34:38;;;;;;;18.10;12.75;;;17.10;46.30;;;;;;4971892;28;93179;-69
2022/01/25 15:37:05;;;;;;;20.25;13.02;;;17.10;46.40;;;;;;4972954;28;94364;-69
2022/01/25 15:39:31;;;;;;;18.30;12.98;;;17.10;46.30;;;;;;4972656;28;92749;-69
2022/01/25 15:41:59;;;;;;;18.60;12.50;;;17.10;46.30;;;;;;4973293;28;91941;-69
2022/01/25 15:44:34;;;;;;;17.10;12.25;;;17.10;46.30;;;;;;4971967;28;94068;-69
2022/01/25 15:46:59;;;;;;;14.45;11.52;;;17.10;46.30;;;;;;4972150;28;94443;-69
2022/01/25 15:49:27;;;;;;;14.50;11.13;;;17.30;46.30;;;;;;4971440;28;95091;-69
2022/01/25 15:51:53;;;;;;;15.70;11.40;;;17.50;46.00;;;;;;4972902;28;92874;-69
2022/01/25 15:54:19;;;;;;;13.98;10.35;;;17.60;45.70;;;;;;4972448;28;92864;-69
2022/01/25 15:56:45;;;;;;;14.00;10.90;;;17.80;45.40;;;;;;4971936;28;93129;-69